createdAt,value
2018-06-17T00:01:10.501Z,6.90
2018-06-17T00:03:39.337Z,6.87
2018-06-17T00:06:08.165Z,7.70
2018-06-17T00:08:37.097Z,9.20
2018-06-17T00:11:05.975Z,8.10
2018-06-17T00:13:34.803Z,8.43
2018-06-17T00:16:03.631Z,8.50
2018-06-17T00:18:32.416Z,8.30
2018-06-17T00:21:01.310Z,8.37
2018-06-17T00:23:30.511Z,7.93
2018-06-17T00:25:59.316Z,7.63
2018-06-17T00:28:28.117Z,7.80
2018-06-17T00:30:56.952Z,7.63
2018-06-17T00:33:25.775Z,7.73
2018-06-17T00:35:54.571Z,7.43
2018-06-17T00:38:23.380Z,7.33
2018-06-17T00:40:52.167Z,6.83
2018-06-17T00:43:20.934Z,6.57
2018-06-17T00:45:49.751Z,6.60
2018-06-17T00:48:18.550Z,6.30
2018-06-17T00:50:47.321Z,5.57
2018-06-17T00:53:16.275Z,5.60
2018-06-17T00:55:45.101Z,6.07
2018-06-17T00:58:13.903Z,6.97
2018-06-17T01:00:42.893Z,6.30
2018-06-17T01:03:11.715Z,5.73
2018-06-17T01:05:40.472Z,6.23
2018-06-17T01:08:09.264Z,7.60
2018-06-17T01:10:38.076Z,6.83
2018-06-17T01:13:06.874Z,5.63
2018-06-17T01:15:35.825Z,6.60
2018-06-17T01:18:04.602Z,6.13
2018-06-17T01:20:33.395Z,5.67
2018-06-17T01:23:02.388Z,5.73
2018-06-17T01:25:31.160Z,6.00
2018-06-17T01:27:59.914Z,5.93
2018-06-17T01:30:28.766Z,6.97
2018-06-17T01:32:57.536Z,6.70
2018-06-17T01:35:26.324Z,6.30
2018-06-17T01:37:55.250Z,6.97
2018-06-17T01:40:24.121Z,6.63
2018-06-17T01:42:52.878Z,5.97
2018-06-17T01:45:21.749Z,6.37
2018-06-17T01:47:50.542Z,5.43
2018-06-17T01:50:19.291Z,5.63
2018-06-17T01:52:48.101Z,5.73
2018-06-17T01:55:16.921Z,5.90
2018-06-17T01:57:45.704Z,6.10
2018-06-17T02:00:14.807Z,5.37
2018-06-17T02:02:43.666Z,5.97
2018-06-17T02:05:17.441Z,5.77
2018-06-17T02:07:51.287Z,5.63
2018-06-17T02:10:25.195Z,5.70
2018-06-17T02:12:53.994Z,6.63
2018-06-17T02:15:22.782Z,6.10
2018-06-17T02:17:51.761Z,6.03
2018-06-17T02:20:20.528Z,6.07
2018-06-17T02:22:49.326Z,5.57
2018-06-17T02:25:18.492Z,5.93
2018-06-17T02:27:47.324Z,5.83
2018-06-17T02:30:16.091Z,5.77
2018-06-17T02:32:44.940Z,5.00
2018-06-17T02:35:13.687Z,5.63
2018-06-17T02:37:42.446Z,5.33
2018-06-17T02:40:11.449Z,5.07
2018-06-17T02:42:40.222Z,5.20
2018-06-17T02:45:14.427Z,5.23
2018-06-17T02:47:48.272Z,5.30
2018-06-17T02:50:22.244Z,5.47
2018-06-17T02:52:56.167Z,5.90
2018-06-17T02:55:24.978Z,5.40
2018-06-17T02:57:53.719Z,5.43
2018-06-17T03:00:22.505Z,5.87
2018-06-17T03:02:51.303Z,5.63
2018-06-17T03:05:21.396Z,5.93
2018-06-17T03:07:50.192Z,6.37
2018-06-17T03:10:19.186Z,6.40
2018-06-17T03:12:48.031Z,5.97
2018-06-17T03:15:16.817Z,7.17
2018-06-17T03:17:45.602Z,7.30
2018-06-17T03:20:14.333Z,7.33
2018-06-17T03:22:43.104Z,7.97
2018-06-17T03:25:17.272Z,7.70
2018-06-17T03:27:51.088Z,7.67
2018-06-17T03:30:25.110Z,7.67
2018-06-17T03:32:58.906Z,6.90
2018-06-17T03:35:32.972Z,6.33
2018-06-17T03:38:01.724Z,6.10
2018-06-17T03:40:30.490Z,6.00
2018-06-17T03:42:59.475Z,5.50
2018-06-17T03:45:28.239Z,5.30
2018-06-17T03:47:57.008Z,5.03
2018-06-17T03:50:26.104Z,5.53
2018-06-17T03:52:54.867Z,5.00
2018-06-17T03:55:23.650Z,4.93
2018-06-17T03:57:52.588Z,4.97
2018-06-17T04:00:21.390Z,4.07
2018-06-17T04:02:50.157Z,5.50
2018-06-17T04:05:24.327Z,5.93
2018-06-17T04:07:53.097Z,6.03
2018-06-17T04:10:22.046Z,5.70
2018-06-17T04:12:50.929Z,6.20
2018-06-17T04:15:19.793Z,6.90
2018-06-17T04:17:48.584Z,6.23
2018-06-17T04:20:17.538Z,6.90
2018-06-17T04:22:46.290Z,6.20
2018-06-17T04:25:15.128Z,6.87
2018-06-17T04:27:44.300Z,6.30
2018-06-17T04:30:13.067Z,6.17
2018-06-17T04:32:41.987Z,6.42
2018-06-17T04:35:10.783Z,6.58
2018-06-17T04:37:39.557Z,6.67
2018-06-17T04:40:08.393Z,6.95
2018-06-17T04:42:37.352Z,7.03
2018-06-17T04:45:06.140Z,7.12
2018-06-17T04:47:34.968Z,7.90
2018-06-17T04:50:03.892Z,6.80
2018-06-17T04:52:32.673Z,8.05
2018-06-17T04:55:01.508Z,7.40
2018-06-17T04:57:30.474Z,6.70
2018-06-17T04:59:59.283Z,7.05
2018-06-17T05:02:28.088Z,6.70
2018-06-17T05:04:56.940Z,6.45
2018-06-17T05:07:25.720Z,6.35
2018-06-17T05:09:54.560Z,6.65
2018-06-17T05:12:23.375Z,6.35
2018-06-17T05:14:52.146Z,6.78
2018-06-17T05:17:20.951Z,6.92
2018-06-17T05:19:49.796Z,6.55
2018-06-17T05:22:18.632Z,6.92
2018-06-17T05:24:47.439Z,7.30
2018-06-17T05:27:16.388Z,5.83
2018-06-17T05:29:45.218Z,5.55
2018-06-17T05:32:13.976Z,6.22
2018-06-17T05:34:42.778Z,6.33
2018-06-17T05:37:11.650Z,8.10
2018-06-17T05:39:40.460Z,6.87
2018-06-17T05:42:09.291Z,8.27
2018-06-17T05:44:38.162Z,8.13
2018-06-17T05:47:06.936Z,8.00
2018-06-17T05:49:36.069Z,8.23
2018-06-17T05:52:04.892Z,8.30
2018-06-17T05:54:33.686Z,7.97
2018-06-17T05:57:02.530Z,7.10
2018-06-17T05:59:31.303Z,8.37
2018-06-17T06:02:00.196Z,8.73
2018-06-17T06:04:29.489Z,8.13
2018-06-17T06:06:58.281Z,8.30
2018-06-17T06:09:27.142Z,8.40
2018-06-17T06:11:56.120Z,8.73
2018-06-17T06:14:24.925Z,7.90
2018-06-17T06:16:53.750Z,8.13
2018-06-17T06:19:22.580Z,8.93
2018-06-17T06:21:51.427Z,8.03
2018-06-17T06:24:20.328Z,7.93
2018-06-17T06:26:49.502Z,8.37
2018-06-17T06:29:18.346Z,7.30
2018-06-17T06:31:47.176Z,6.97
2018-06-17T06:34:16.173Z,7.13
2018-06-17T06:36:44.927Z,7.40
2018-06-17T06:39:13.715Z,7.60
2018-06-17T06:41:42.667Z,8.43
2018-06-17T06:44:11.504Z,8.60
2018-06-17T06:46:40.356Z,8.47
2018-06-17T06:49:09.312Z,8.53
2018-06-17T06:51:38.121Z,9.70
2018-06-17T06:54:06.988Z,8.70
2018-06-17T06:56:36.211Z,10.80
2018-06-17T06:59:05.078Z,12.27
2018-06-17T07:01:44.869Z,11.30
2018-06-17T07:04:24.618Z,10.30
2018-06-17T07:07:04.604Z,10.70
2018-06-17T07:09:44.975Z,11.53
2018-06-17T07:12:13.960Z,11.40
2018-06-17T07:14:42.796Z,12.10
2018-06-17T07:17:22.635Z,11.20
2018-06-17T07:19:51.458Z,10.57
2018-06-17T07:22:20.380Z,10.13
2018-06-17T07:24:49.316Z,10.70
2018-06-17T07:27:28.914Z,9.10
2018-06-17T07:29:57.735Z,9.87
2018-06-17T07:32:26.604Z,10.00
2018-06-17T07:34:55.497Z,9.27
2018-06-17T07:37:24.410Z,9.93
2018-06-17T07:40:56.816Z,9.93
2018-06-17T07:43:25.840Z,8.70
2018-06-17T07:45:54.747Z,7.77
2018-06-17T07:49:40.901Z,8.47
2018-06-17T07:52:21.142Z,7.87
2018-06-17T07:54:50.359Z,7.30
2018-06-17T07:57:20.510Z,6.10
2018-06-17T07:59:49.307Z,5.10
2018-06-17T08:02:18.522Z,4.43
2018-06-17T08:04:47.388Z,5.37
2018-06-17T08:07:16.241Z,7.13
2018-06-17T08:09:45.497Z,7.37
2018-06-17T08:12:14.518Z,8.43
2018-06-17T08:14:43.361Z,8.57
2018-06-17T08:17:12.290Z,7.33
2018-06-17T08:19:41.586Z,7.63
2018-06-17T08:22:10.370Z,6.93
2018-06-17T08:24:39.378Z,6.93
2018-06-17T08:27:08.255Z,7.07
2018-06-17T08:29:37.128Z,6.00
2018-06-17T08:32:06.204Z,8.23
2018-06-17T08:34:34.991Z,8.07
2018-06-17T08:37:03.793Z,7.53
2018-06-17T08:39:33.016Z,8.27
2018-06-17T08:42:01.800Z,7.67
2018-06-17T08:44:30.691Z,6.13
2018-06-17T08:46:59.614Z,5.57
2018-06-17T08:49:28.456Z,4.77
2018-06-17T08:51:57.274Z,4.43
2018-06-17T08:54:26.352Z,4.30
2018-06-17T08:56:55.131Z,4.40
2018-06-17T08:59:23.928Z,4.93
2018-06-17T09:01:52.779Z,5.10
2018-06-17T09:04:21.627Z,5.10
2018-06-17T09:06:50.409Z,4.90
2018-06-17T09:09:19.262Z,4.90
2018-06-17T09:11:48.114Z,5.23
2018-06-17T09:14:16.894Z,5.03
2018-06-17T09:16:46.179Z,4.43
2018-06-17T09:19:15.008Z,4.67
2018-06-17T09:21:43.869Z,4.83
2018-06-17T09:24:13.142Z,4.37
2018-06-17T09:26:42.013Z,4.40
2018-06-17T09:29:10.804Z,4.70
2018-06-17T09:31:39.701Z,4.00
2018-06-17T09:34:08.546Z,3.87
2018-06-17T09:36:37.364Z,4.07
2018-06-17T09:39:08.406Z,3.87
2018-06-17T09:41:37.220Z,4.67
2018-06-17T09:44:06.046Z,4.70
2018-06-17T09:46:34.907Z,5.73
2018-06-17T09:49:03.761Z,5.03
2018-06-17T09:51:32.620Z,4.80
2018-06-17T09:54:01.461Z,4.33
2018-06-17T09:56:30.258Z,4.03
2018-06-17T09:58:59.075Z,3.97
2018-06-17T10:01:28.119Z,3.33
2018-06-17T10:03:56.894Z,3.63
2018-06-17T10:06:25.847Z,3.40
2018-06-17T10:08:54.691Z,3.63
2018-06-17T10:11:23.525Z,3.93
2018-06-17T10:13:52.460Z,4.00
2018-06-17T10:16:21.466Z,4.10
2018-06-17T10:18:50.298Z,3.70
2018-06-17T10:21:19.157Z,4.03
2018-06-17T10:23:48.136Z,4.17
2018-06-17T10:26:16.975Z,4.13
2018-06-17T10:28:45.853Z,3.90
2018-06-17T10:31:14.741Z,3.60
2018-06-17T10:33:43.589Z,3.63
2018-06-17T10:36:12.404Z,4.00
2018-06-17T10:38:41.371Z,3.40
2018-06-17T10:41:10.228Z,3.30
2018-06-17T10:43:39.075Z,4.03
2018-06-17T10:46:08.166Z,4.10
2018-06-17T10:48:36.989Z,4.30
2018-06-17T10:51:05.872Z,4.03
2018-06-17T10:53:35.060Z,4.17
2018-06-17T10:56:04.017Z,4.70
2018-06-17T10:58:32.731Z,4.30
2018-06-17T11:01:01.562Z,4.17
2018-06-17T11:03:30.380Z,4.20
2018-06-17T11:05:59.185Z,4.53
2018-06-17T11:08:28.152Z,5.00
2018-06-17T11:10:56.969Z,4.67
2018-06-17T11:13:25.780Z,5.20
2018-06-17T11:15:55.001Z,5.97
2018-06-17T11:18:23.854Z,5.97
2018-06-17T11:20:52.896Z,5.47
2018-06-17T11:23:21.764Z,6.50
2018-06-17T11:25:50.618Z,5.83
2018-06-17T11:28:19.427Z,4.87
2018-06-17T11:30:48.370Z,6.10
2018-06-17T11:33:17.226Z,7.10
2018-06-17T11:35:46.072Z,7.37
2018-06-17T11:38:14.930Z,6.53
2018-06-17T11:40:43.708Z,6.53
2018-06-17T11:43:12.532Z,6.17
2018-06-17T11:45:41.524Z,5.93
2018-06-17T11:48:10.327Z,5.77
2018-06-17T11:50:39.127Z,6.20
2018-06-17T11:53:08.132Z,5.57
2018-06-17T11:55:36.945Z,4.77
2018-06-17T11:58:05.867Z,5.30
2018-06-17T12:00:34.761Z,4.90
2018-06-17T12:03:03.636Z,5.17
2018-06-17T12:05:32.424Z,4.77
2018-06-17T12:08:01.320Z,4.20
2018-06-17T12:10:30.117Z,4.30
2018-06-17T12:12:58.967Z,5.07
2018-06-17T12:15:28.221Z,4.87
2018-06-17T12:17:57.106Z,4.70
2018-06-17T12:20:25.933Z,4.50
2018-06-17T12:22:54.932Z,4.20
2018-06-17T12:25:23.846Z,4.00
2018-06-17T12:27:52.632Z,4.30
2018-06-17T12:30:21.671Z,4.93
2018-06-17T12:32:50.570Z,4.40
2018-06-17T12:35:19.395Z,4.77
2018-06-17T12:37:48.517Z,3.97
2018-06-17T12:40:17.330Z,4.30
2018-06-17T12:42:46.122Z,4.40
2018-06-17T12:45:14.990Z,4.70
2018-06-17T12:47:43.809Z,8.43
2018-06-17T12:50:12.644Z,7.43
2018-06-17T12:52:41.563Z,3.60
2018-06-17T12:55:10.354Z,3.70
2018-06-17T12:57:39.234Z,3.03
2018-06-17T13:00:08.567Z,3.93
2018-06-17T13:02:37.385Z,3.60
2018-06-17T13:05:06.461Z,3.17
2018-06-17T13:07:35.439Z,3.67
2018-06-17T13:10:04.349Z,3.73
2018-06-17T13:12:33.162Z,4.70
2018-06-17T13:15:02.031Z,4.83
2018-06-17T13:17:30.883Z,4.63
2018-06-17T13:19:59.741Z,4.53
2018-06-17T13:22:28.676Z,4.30
2018-06-17T13:24:57.753Z,4.33
2018-06-17T13:27:26.726Z,3.87
2018-06-17T13:29:55.756Z,4.10
2018-06-17T13:32:24.616Z,3.90
2018-06-17T13:34:53.410Z,3.60
2018-06-17T13:37:22.380Z,4.10
2018-06-17T13:39:51.315Z,4.27
2018-06-17T13:42:20.155Z,3.67
2018-06-17T13:44:49.119Z,3.83
2018-06-17T13:47:18.089Z,3.47
2018-06-17T13:49:46.903Z,3.83
2018-06-17T13:52:16.163Z,4.00
2018-06-17T13:54:45.007Z,3.63
2018-06-17T13:57:13.861Z,4.00
2018-06-17T13:59:42.715Z,3.77
2018-06-17T14:02:11.561Z,4.17
2018-06-17T14:04:40.408Z,3.80
2018-06-17T14:07:09.551Z,5.23
2018-06-17T14:09:38.471Z,4.73
2018-06-17T14:12:07.580Z,4.80
2018-06-17T14:14:36.628Z,4.67
2018-06-17T14:17:05.616Z,3.70
2018-06-17T14:19:34.491Z,3.93
2018-06-17T14:22:03.925Z,4.23
2018-06-17T14:24:32.843Z,4.60
2018-06-17T14:27:01.754Z,4.30
2018-06-17T14:29:30.783Z,4.57
2018-06-17T14:31:59.693Z,4.40
2018-06-17T14:34:28.562Z,4.33
2018-06-17T14:36:57.712Z,3.77
2018-06-17T14:39:26.548Z,4.10
2018-06-17T14:42:00.753Z,3.70
2018-06-17T14:44:34.601Z,3.60
2018-06-17T14:47:08.732Z,3.60
2018-06-17T14:49:42.726Z,3.50
2018-06-17T14:52:16.663Z,4.07
2018-06-17T14:54:45.489Z,3.97
2018-06-17T14:57:14.427Z,4.10
2018-06-17T14:59:43.315Z,4.20
2018-06-17T15:02:12.171Z,3.80
2018-06-17T15:04:41.033Z,4.00
2018-06-17T15:07:10.239Z,3.57
2018-06-17T15:09:39.234Z,3.70
2018-06-17T15:12:08.375Z,3.77
2018-06-17T15:14:37.716Z,3.87
2018-06-17T15:17:07.064Z,3.73
2018-06-17T15:19:36.005Z,3.10
2018-06-17T15:22:05.118Z,3.40
2018-06-17T15:24:33.991Z,3.43
2018-06-17T15:27:02.898Z,3.47
2018-06-17T15:29:32.041Z,4.00
2018-06-17T15:32:06.109Z,3.10
2018-06-17T15:34:40.008Z,3.80
2018-06-17T15:37:13.913Z,3.93
2018-06-17T15:39:47.778Z,4.20
2018-06-17T15:42:16.609Z,3.50
2018-06-17T15:44:45.553Z,3.27
2018-06-17T15:47:14.414Z,3.97
2018-06-17T15:49:43.229Z,4.07
2018-06-17T15:52:12.154Z,3.87
2018-06-17T15:54:41.217Z,4.23
2018-06-17T15:57:10.071Z,3.80
2018-06-17T15:59:38.964Z,3.77
2018-06-17T16:02:08.034Z,3.47
2018-06-17T16:04:36.873Z,4.00
2018-06-17T16:07:05.825Z,4.13
2018-06-17T16:09:34.813Z,4.47
2018-06-17T16:12:08.689Z,4.03
2018-06-17T16:14:42.768Z,4.67
2018-06-17T16:17:16.757Z,4.93
2018-06-17T16:19:50.614Z,5.00
2018-06-17T16:22:19.486Z,5.33
2018-06-17T16:24:48.925Z,4.97
2018-06-17T16:27:18.023Z,5.90
2018-06-17T16:29:46.876Z,5.37
2018-06-17T16:32:15.794Z,5.23
2018-06-17T16:34:45.016Z,4.57
2018-06-17T16:37:13.853Z,4.50
2018-06-17T16:39:42.704Z,4.97
2018-06-17T16:42:12.241Z,5.33
2018-06-17T16:44:41.169Z,5.37
2018-06-17T16:47:10.093Z,4.37
2018-06-17T16:49:38.995Z,3.73
2018-06-17T16:52:12.955Z,4.20
2018-06-17T16:54:47.064Z,3.80
2018-06-17T16:57:20.907Z,3.90
2018-06-17T16:59:58.524Z,4.30
2018-06-17T17:02:27.424Z,4.10
2018-06-17T17:04:56.720Z,4.50
2018-06-17T17:07:25.724Z,4.30
2018-06-17T17:09:54.670Z,4.40
2018-06-17T17:12:23.650Z,4.10
2018-06-17T17:14:52.754Z,4.67
2018-06-17T17:17:21.676Z,3.97
2018-06-17T17:19:50.546Z,4.63
2018-06-17T17:22:19.477Z,5.00
2018-06-17T17:24:48.403Z,4.57
2018-06-17T17:27:17.209Z,4.73
2018-06-17T17:29:46.151Z,5.03
2018-06-17T17:32:20.003Z,4.90
2018-06-17T17:34:54.350Z,5.03
2018-06-17T17:37:28.229Z,4.70
2018-06-17T17:40:02.185Z,4.77
2018-06-17T17:42:31.024Z,4.77
2018-06-17T17:45:05.240Z,4.47
2018-06-17T17:47:34.768Z,4.50
2018-06-17T17:50:03.865Z,4.37
2018-06-17T17:52:32.831Z,4.40
2018-06-17T17:55:01.867Z,4.70
2018-06-17T17:57:30.825Z,4.20
2018-06-17T17:59:59.815Z,4.20
2018-06-17T18:02:28.794Z,4.27
2018-06-17T18:04:57.737Z,4.30
2018-06-17T18:07:26.776Z,4.70
2018-06-17T18:09:55.825Z,4.83
2018-06-17T18:12:24.749Z,4.53
2018-06-17T18:14:53.673Z,4.30
2018-06-17T18:17:22.625Z,4.40
2018-06-17T18:19:51.727Z,3.90
2018-06-17T18:22:20.836Z,3.70
2018-06-17T18:24:54.821Z,3.67
2018-06-17T18:27:29.150Z,3.30
2018-06-17T18:30:03.021Z,3.40
2018-06-17T18:32:37.043Z,3.40
2018-06-17T18:35:10.986Z,3.10
2018-06-17T18:50:29.633Z,3.60
2018-06-17T18:52:58.544Z,3.60
2018-06-17T18:55:27.428Z,4.20
2018-06-17T18:57:56.613Z,4.93
2018-06-17T19:00:25.464Z,5.57
2018-06-17T19:02:54.458Z,6.70
2018-06-17T19:05:23.540Z,5.40
2018-06-17T19:07:52.405Z,5.40
2018-06-17T19:10:26.651Z,5.30
2018-06-17T19:13:00.628Z,5.60
2018-06-17T19:15:34.671Z,5.00
2018-06-17T19:18:06.427Z,4.30
2018-06-17T19:20:42.141Z,4.57
2018-06-17T19:23:11.081Z,4.57
2018-06-17T19:25:39.913Z,4.37
2018-06-17T19:28:08.813Z,4.20
2018-06-17T19:30:37.659Z,3.90
2018-06-17T19:33:06.520Z,4.23
2018-06-17T19:35:35.397Z,4.03
2018-06-17T19:38:04.348Z,4.03
2018-06-17T19:40:33.173Z,4.43
2018-06-17T19:43:02.125Z,3.83
2018-06-17T19:45:31.068Z,3.90
2018-06-17T19:47:59.939Z,4.00
2018-06-17T19:50:34.994Z,4.43
2018-06-17T19:53:08.993Z,3.37
2018-06-17T19:55:43.061Z,3.47
2018-06-17T19:58:17.095Z,4.03
2018-06-17T20:00:47.772Z,3.50
2018-06-17T20:03:16.563Z,3.27
2018-06-17T20:05:45.444Z,3.63
2018-06-17T20:08:14.462Z,3.70
2018-06-17T20:10:43.284Z,4.47
2018-06-17T20:13:12.089Z,4.00
2018-06-17T20:15:41.063Z,3.70
2018-06-17T20:18:10.423Z,3.40
2018-06-17T20:20:39.287Z,4.33
2018-06-17T20:23:08.141Z,4.17
2018-06-17T20:25:36.994Z,3.73
2018-06-17T20:28:05.864Z,3.90
2018-06-17T20:30:34.685Z,4.27
2018-06-17T20:33:08.420Z,4.03
2018-06-17T20:35:42.488Z,4.23
2018-06-17T20:38:16.423Z,4.00
2018-06-17T20:40:50.301Z,4.43
2018-06-17T20:43:24.171Z,4.50
2018-06-17T20:45:53.004Z,4.33
2018-06-17T20:48:21.805Z,4.60
2018-06-17T20:50:50.626Z,4.17
2018-06-17T20:53:19.608Z,4.13
2018-06-17T20:55:48.410Z,4.37
2018-06-17T20:58:17.272Z,4.47
2018-06-17T21:00:46.125Z,3.90
2018-06-17T21:03:15.078Z,4.50
2018-06-17T21:05:43.854Z,4.23
2018-06-17T21:08:12.894Z,4.30
2018-06-17T21:10:41.688Z,4.20
2018-06-17T21:13:10.482Z,4.50
2018-06-17T21:15:39.685Z,4.30
2018-06-17T21:18:08.473Z,4.67
2018-06-17T21:20:42.702Z,4.70
2018-06-17T21:23:16.551Z,4.40
2018-06-17T21:25:50.564Z,4.77
2018-06-17T21:28:19.356Z,4.40
2018-06-17T21:30:48.146Z,4.67
2018-06-17T21:33:16.964Z,4.60
2018-06-17T21:35:45.767Z,3.97
2018-06-17T21:38:14.543Z,4.10
2018-06-17T21:40:43.488Z,4.00
2018-06-17T21:43:12.297Z,4.17
2018-06-17T21:45:41.179Z,3.50
2018-06-17T21:48:10.180Z,4.43
2018-06-17T21:50:38.935Z,4.27
2018-06-17T21:53:07.759Z,3.90
2018-06-17T21:55:36.903Z,3.90
2018-06-17T21:58:05.655Z,4.27
2018-06-17T22:00:34.496Z,3.90
2018-06-17T22:03:03.721Z,4.03
2018-06-17T22:05:32.568Z,4.37
2018-06-17T22:08:06.415Z,4.67
2018-06-17T22:10:40.316Z,4.63
2018-06-17T22:13:09.110Z,4.17
2018-06-17T22:15:42.932Z,4.47
2018-06-17T22:18:11.808Z,4.53
2018-06-17T22:20:40.639Z,4.73
2018-06-17T22:23:09.437Z,5.03
2018-06-17T22:25:38.234Z,5.30
2018-06-17T22:28:07.007Z,5.27
2018-06-17T22:30:35.789Z,4.83
2018-06-17T22:33:04.849Z,5.00
2018-06-17T22:35:33.611Z,5.03
2018-06-17T22:38:02.468Z,5.73
2018-06-17T22:40:31.436Z,5.20
2018-06-17T22:43:00.228Z,5.20
2018-06-17T22:45:29.046Z,4.90
2018-06-17T22:47:58.031Z,5.13
2018-06-17T22:50:26.809Z,5.17
2018-06-17T22:53:06.552Z,5.27
2018-06-17T22:55:35.327Z,5.70
2018-06-17T22:58:09.415Z,5.33
2018-06-17T23:00:43.308Z,5.60
2018-06-17T23:03:17.392Z,5.90
2018-06-17T23:05:51.252Z,5.53
2018-06-17T23:08:25.171Z,5.57
2018-06-17T23:10:54.042Z,5.20
2018-06-17T23:13:22.878Z,5.30
2018-06-17T23:15:51.715Z,5.53
2018-06-17T23:18:20.476Z,5.97
2018-06-17T23:20:49.288Z,6.50
2018-06-17T23:23:18.425Z,6.13
2018-06-17T23:25:47.300Z,5.97
2018-06-17T23:28:16.041Z,5.73
2018-06-17T23:30:44.998Z,5.83
2018-06-17T23:33:13.719Z,6.70
2018-06-17T23:35:42.486Z,6.70
2018-06-17T23:38:11.591Z,6.73
2018-06-17T23:40:40.364Z,6.80
2018-06-17T23:43:09.225Z,6.80
2018-06-17T23:45:42.102Z,7.40
2018-06-17T23:48:16.108Z,7.53
2018-06-17T23:52:56.242Z,7.17
2018-06-17T23:55:30.068Z,7.27
2018-06-17T23:57:59.092Z,7.60
